AerodromSadržaj METAR izveštaja
LYBEMETAR LYBE 130630Z 11018KT 9999 FEW040 14/11 Q1002 NOSIG=
LYBTMETAR LYBT 130630Z 08019KT CAVOK 13/11 Q1002 NOSIG=
LYKVMETAR LYKV 130630Z 13017KT 9999 FEW040 14/10 Q1003 NOSIG=
LYNIMETAR LYNI 130630Z 10011KT 070V140 9999 -RA FEW017 BKN027 13/11 Q1006 RERA NOSIG=
LYVRMETAR LYVR 130630Z 13023G51KT 9999 BKN040 16/11 Q1005 NOSIG=
LYUZMETAR LYUZ 130630Z 13006G16KT CAVOK 11/02 Q1002=
LYPGMETAR LYPG 130630Z 19004KT 140V210 9999 -RA FEW027 SCT034 BKN070 15/09 Q1002 NOSIG=
LYTVMETAR LYTV 130630Z 15016G31KT 9999 -RA FEW023 SCT043 OVC073 15/11 Q1001 NOSIG=

Podaci učitani u: 2019-11-13 06:44:09 UTC

METAR, TAF, AIRMET, GAMET, SIGMET

Važna napomena: MET infоrmаciје nа оvim web strаnicаmа imајu infоrmаtivni kаrаktеr, nаmenjene su isključivo vаzduhоplоvnim kоrisnicima, nе smејu sе kоristiti zа bilо kоје kоmеrciјаlnе svrhе, i nе zаmеnjuјu dоkumеntаciјu zа lеt.